sensor_id;sensor_type;location;lat;lon;timestamp;P1;durP1;ratioP1;P2;durP2;ratioP2
10122;SDS011;5101;49.038;8.710;2023-03-08T00:01:35;8.17;;;5.57;;
10122;SDS011;5101;49.038;8.710;2023-03-08T00:04:00;8.30;;;5.90;;
10122;SDS011;5101;49.038;8.710;2023-03-08T00:06:26;7.90;;;5.50;;
10122;SDS011;5101;49.038;8.710;2023-03-08T00:08:56;8.80;;;5.83;;
10122;SDS011;5101;49.038;8.710;2023-03-08T00:11:23;6.93;;;5.00;;
10122;SDS011;5101;49.038;8.710;2023-03-08T00:13:48;8.03;;;5.47;;
10122;SDS011;5101;49.038;8.710;2023-03-08T00:16:14;9.33;;;6.07;;
10122;SDS011;5101;49.038;8.710;2023-03-08T00:18:40;8.67;;;6.00;;
10122;SDS011;5101;49.038;8.710;2023-03-08T00:21:07;7.87;;;5.70;;
10122;SDS011;5101;49.038;8.710;2023-03-08T00:23:37;6.93;;;5.83;;
10122;SDS011;5101;49.038;8.710;2023-03-08T00:26:03;6.77;;;5.77;;
10122;SDS011;5101;49.038;8.710;2023-03-08T00:28:29;7.60;;;5.77;;
10122;SDS011;5101;49.038;8.710;2023-03-08T00:30:59;7.70;;;5.57;;
10122;SDS011;5101;49.038;8.710;2023-03-08T00:33:25;7.60;;;5.43;;
10122;SDS011;5101;49.038;8.710;2023-03-08T00:35:58;7.40;;;5.07;;
10122;SDS011;5101;49.038;8.710;2023-03-08T00:38:26;8.50;;;6.13;;
10122;SDS011;5101;49.038;8.710;2023-03-08T00:40:52;7.10;;;5.47;;
10122;SDS011;5101;49.038;8.710;2023-03-08T00:43:18;7.43;;;5.53;;
10122;SDS011;5101;49.038;8.710;2023-03-08T00:45:44;6.47;;;5.43;;
10122;SDS011;5101;49.038;8.710;2023-03-08T00:48:10;8.43;;;5.63;;
10122;SDS011;5101;49.038;8.710;2023-03-08T00:50:35;7.00;;;5.60;;
10122;SDS011;5101;49.038;8.710;2023-03-08T00:53:01;7.47;;;5.13;;
10122;SDS011;5101;49.038;8.710;2023-03-08T00:55:26;6.63;;;5.03;;
10122;SDS011;5101;49.038;8.710;2023-03-08T00:57:52;6.07;;;5.00;;
10122;SDS011;5101;49.038;8.710;2023-03-08T01:00:17;9.33;;;5.83;;
10122;SDS011;5101;49.038;8.710;2023-03-08T01:02:43;7.83;;;5.70;;
10122;SDS011;5101;49.038;8.710;2023-03-08T01:05:09;6.67;;;5.20;;
10122;SDS011;5101;49.038;8.710;2023-03-08T01:07:34;8.37;;;5.37;;
10122;SDS011;5101;49.038;8.710;2023-03-08T01:10:00;11.43;;;5.93;;
10122;SDS011;5101;49.038;8.710;2023-03-08T01:12:25;8.10;;;5.40;;
10122;SDS011;5101;49.038;8.710;2023-03-08T01:14:51;7.87;;;5.10;;
10122;SDS011;5101;49.038;8.710;2023-03-08T01:17:17;6.50;;;5.13;;
10122;SDS011;5101;49.038;8.710;2023-03-08T01:19:43;7.83;;;5.50;;
10122;SDS011;5101;49.038;8.710;2023-03-08T01:22:09;7.57;;;5.70;;
10122;SDS011;5101;49.038;8.710;2023-03-08T01:24:35;6.37;;;5.13;;
10122;SDS011;5101;49.038;8.710;2023-03-08T01:27:00;8.43;;;5.80;;
10122;SDS011;5101;49.038;8.710;2023-03-08T01:29:26;6.97;;;5.47;;
10122;SDS011;5101;49.038;8.710;2023-03-08T01:31:52;8.50;;;4.97;;
10122;SDS011;5101;49.038;8.710;2023-03-08T01:34:18;6.70;;;5.17;;
10122;SDS011;5101;49.038;8.710;2023-03-08T01:36:45;7.97;;;5.13;;
10122;SDS011;5101;49.038;8.710;2023-03-08T01:39:10;7.67;;;5.20;;
10122;SDS011;5101;49.038;8.710;2023-03-08T01:41:36;6.80;;;5.03;;
10122;SDS011;5101;49.038;8.710;2023-03-08T01:44:02;5.43;;;4.60;;
10122;SDS011;5101;49.038;8.710;2023-03-08T01:46:29;6.70;;;4.87;;
10122;SDS011;5101;49.038;8.710;2023-03-08T01:49:09;7.77;;;5.10;;
10122;SDS011;5101;49.038;8.710;2023-03-08T01:51:42;7.40;;;4.77;;
10122;SDS011;5101;49.038;8.710;2023-03-08T01:54:15;5.10;;;4.60;;
10122;SDS011;5101;49.038;8.710;2023-03-08T01:56:45;8.03;;;5.00;;
10122;SDS011;5101;49.038;8.710;2023-03-08T01:59:12;8.63;;;5.10;;
10122;SDS011;5101;49.038;8.710;2023-03-08T02:01:39;7.67;;;5.13;;
10122;SDS011;5101;49.038;8.710;2023-03-08T02:04:05;5.80;;;4.90;;
10122;SDS011;5101;49.038;8.710;2023-03-08T02:06:31;6.83;;;4.90;;
10122;SDS011;5101;49.038;8.710;2023-03-08T02:08:57;7.20;;;4.83;;
10122;SDS011;5101;49.038;8.710;2023-03-08T02:11:27;6.23;;;4.80;;
10122;SDS011;5101;49.038;8.710;2023-03-08T02:13:52;8.40;;;5.07;;
10122;SDS011;5101;49.038;8.710;2023-03-08T02:16:19;9.33;;;5.53;;
10122;SDS011;5101;49.038;8.710;2023-03-08T02:18:49;6.97;;;4.93;;
10122;SDS011;5101;49.038;8.710;2023-03-08T02:21:16;7.07;;;4.70;;
10122;SDS011;5101;49.038;8.710;2023-03-08T02:23:41;5.70;;;4.40;;
10122;SDS011;5101;49.038;8.710;2023-03-08T02:26:07;5.80;;;4.40;;
10122;SDS011;5101;49.038;8.710;2023-03-08T02:28:33;5.40;;;4.20;;
10122;SDS011;5101;49.038;8.710;2023-03-08T02:30:58;5.07;;;4.30;;
10122;SDS011;5101;49.038;8.710;2023-03-08T02:33:24;6.60;;;4.90;;
10122;SDS011;5101;49.038;8.710;2023-03-08T02:35:50;6.97;;;4.80;;
10122;SDS011;5101;49.038;8.710;2023-03-08T02:38:16;8.73;;;4.87;;
10122;SDS011;5101;49.038;8.710;2023-03-08T02:40:43;6.43;;;4.60;;
10122;SDS011;5101;49.038;8.710;2023-03-08T02:43:09;5.40;;;4.50;;
10122;SDS011;5101;49.038;8.710;2023-03-08T02:45:35;4.47;;;4.07;;
10122;SDS011;5101;49.038;8.710;2023-03-08T02:48:01;5.77;;;4.27;;
10122;SDS011;5101;49.038;8.710;2023-03-08T02:50:28;6.77;;;4.67;;
10122;SDS011;5101;49.038;8.710;2023-03-08T02:52:53;7.00;;;4.60;;
10122;SDS011;5101;49.038;8.710;2023-03-08T02:55:19;5.30;;;4.10;;
10122;SDS011;5101;49.038;8.710;2023-03-08T02:57:44;7.03;;;4.63;;
10122;SDS011;5101;49.038;8.710;2023-03-08T03:00:10;7.30;;;4.33;;
10122;SDS011;5101;49.038;8.710;2023-03-08T03:02:36;5.97;;;4.40;;
10122;SDS011;5101;49.038;8.710;2023-03-08T03:05:02;4.80;;;4.10;;
10122;SDS011;5101;49.038;8.710;2023-03-08T03:07:29;5.07;;;4.07;;
10122;SDS011;5101;49.038;8.710;2023-03-08T03:09:54;4.97;;;3.93;;
10122;SDS011;5101;49.038;8.710;2023-03-08T03:12:20;6.80;;;4.47;;
10122;SDS011;5101;49.038;8.710;2023-03-08T03:14:45;6.50;;;4.03;;
10122;SDS011;5101;49.038;8.710;2023-03-08T03:17:11;7.13;;;4.20;;
10122;SDS011;5101;49.038;8.710;2023-03-08T03:19:36;7.00;;;4.73;;
10122;SDS011;5101;49.038;8.710;2023-03-08T03:22:02;5.27;;;3.83;;
10122;SDS011;5101;49.038;8.710;2023-03-08T03:24:28;5.40;;;4.07;;
10122;SDS011;5101;49.038;8.710;2023-03-08T03:26:54;5.00;;;4.20;;
10122;SDS011;5101;49.038;8.710;2023-03-08T03:29:19;6.47;;;4.27;;
10122;SDS011;5101;49.038;8.710;2023-03-08T03:31:45;6.73;;;4.50;;
10122;SDS011;5101;49.038;8.710;2023-03-08T03:34:12;6.87;;;4.50;;
10122;SDS011;5101;49.038;8.710;2023-03-08T03:36:38;6.53;;;4.67;;
10122;SDS011;5101;49.038;8.710;2023-03-08T03:39:03;5.47;;;4.27;;
10122;SDS011;5101;49.038;8.710;2023-03-08T03:41:29;7.30;;;4.60;;
10122;SDS011;5101;49.038;8.710;2023-03-08T03:43:55;5.93;;;4.70;;
10122;SDS011;5101;49.038;8.710;2023-03-08T03:46:22;6.57;;;5.10;;
10122;SDS011;5101;49.038;8.710;2023-03-08T03:48:49;9.03;;;5.10;;
10122;SDS011;5101;49.038;8.710;2023-03-08T03:51:16;7.03;;;4.67;;
10122;SDS011;5101;49.038;8.710;2023-03-08T03:53:43;5.30;;;4.40;;
10122;SDS011;5101;49.038;8.710;2023-03-08T03:58:42;6.53;;;4.63;;
10122;SDS011;5101;49.038;8.710;2023-03-08T04:01:09;6.03;;;4.73;;
10122;SDS011;5101;49.038;8.710;2023-03-08T04:03:36;6.60;;;4.87;;
10122;SDS011;5101;49.038;8.710;2023-03-08T04:06:07;6.47;;;4.70;;
10122;SDS011;5101;49.038;8.710;2023-03-08T04:08:34;7.73;;;4.97;;
10122;SDS011;5101;49.038;8.710;2023-03-08T04:11:05;6.40;;;4.87;;
10122;SDS011;5101;49.038;8.710;2023-03-08T04:13:32;7.73;;;4.90;;
10122;SDS011;5101;49.038;8.710;2023-03-08T04:15:57;6.37;;;5.43;;
10122;SDS011;5101;49.038;8.710;2023-03-08T04:18:23;6.77;;;5.10;;
10122;SDS011;5101;49.038;8.710;2023-03-08T04:20:48;7.43;;;5.00;;
10122;SDS011;5101;49.038;8.710;2023-03-08T04:23:14;7.30;;;4.80;;
10122;SDS011;5101;49.038;8.710;2023-03-08T04:25:39;6.57;;;4.80;;
10122;SDS011;5101;49.038;8.710;2023-03-08T04:28:05;6.63;;;5.20;;
10122;SDS011;5101;49.038;8.710;2023-03-08T04:30:30;6.33;;;5.00;;
10122;SDS011;5101;49.038;8.710;2023-03-08T04:32:56;6.27;;;4.47;;
10122;SDS011;5101;49.038;8.710;2023-03-08T04:35:21;5.47;;;4.60;;
10122;SDS011;5101;49.038;8.710;2023-03-08T04:37:47;6.87;;;4.77;;
10122;SDS011;5101;49.038;8.710;2023-03-08T04:40:12;7.00;;;5.47;;
10122;SDS011;5101;49.038;8.710;2023-03-08T04:42:38;7.17;;;4.83;;
10122;SDS011;5101;49.038;8.710;2023-03-08T04:45:05;9.70;;;5.10;;
10122;SDS011;5101;49.038;8.710;2023-03-08T04:47:31;10.70;;;5.30;;
10122;SDS011;5101;49.038;8.710;2023-03-08T04:49:57;8.53;;;5.43;;
10122;SDS011;5101;49.038;8.710;2023-03-08T04:52:22;9.77;;;5.60;;
10122;SDS011;5101;49.038;8.710;2023-03-08T04:54:48;7.67;;;5.50;;
10122;SDS011;5101;49.038;8.710;2023-03-08T04:57:14;7.17;;;5.00;;
10122;SDS011;5101;49.038;8.710;2023-03-08T04:59:41;7.40;;;4.97;;
10122;SDS011;5101;49.038;8.710;2023-03-08T05:02:07;9.73;;;5.30;;
10122;SDS011;5101;49.038;8.710;2023-03-08T05:04:33;6.80;;;5.40;;
10122;SDS011;5101;49.038;8.710;2023-03-08T05:06:58;9.30;;;5.57;;
10122;SDS011;5101;49.038;8.710;2023-03-08T05:09:24;7.27;;;4.93;;
10122;SDS011;5101;49.038;8.710;2023-03-08T05:11:49;7.33;;;5.17;;
10122;SDS011;5101;49.038;8.710;2023-03-08T05:14:15;6.13;;;4.93;;
10122;SDS011;5101;49.038;8.710;2023-03-08T05:16:40;6.73;;;5.37;;
10122;SDS011;5101;49.038;8.710;2023-03-08T05:19:06;7.40;;;5.40;;
10122;SDS011;5101;49.038;8.710;2023-03-08T05:21:31;6.57;;;5.53;;
10122;SDS011;5101;49.038;8.710;2023-03-08T05:23:57;8.53;;;5.43;;
10122;SDS011;5101;49.038;8.710;2023-03-08T05:26:24;7.63;;;5.70;;
10122;SDS011;5101;49.038;8.710;2023-03-08T05:28:49;8.23;;;6.17;;
10122;SDS011;5101;49.038;8.710;2023-03-08T05:31:16;6.30;;;5.17;;
10122;SDS011;5101;49.038;8.710;2023-03-08T05:33:44;9.07;;;5.30;;
10122;SDS011;5101;49.038;8.710;2023-03-08T05:36:11;10.17;;;5.87;;
10122;SDS011;5101;49.038;8.710;2023-03-08T05:38:37;10.20;;;6.27;;
10122;SDS011;5101;49.038;8.710;2023-03-08T05:41:04;9.07;;;6.03;;
10122;SDS011;5101;49.038;8.710;2023-03-08T05:43:32;10.03;;;6.00;;
10122;SDS011;5101;49.038;8.710;2023-03-08T05:45:58;10.83;;;6.33;;
10122;SDS011;5101;49.038;8.710;2023-03-08T05:48:26;11.37;;;6.57;;
10122;SDS011;5101;49.038;8.710;2023-03-08T05:50:52;11.13;;;6.67;;
10122;SDS011;5101;49.038;8.710;2023-03-08T05:53:18;9.53;;;6.60;;
10122;SDS011;5101;49.038;8.710;2023-03-08T05:55:44;10.90;;;6.77;;
10122;SDS011;5101;49.038;8.710;2023-03-08T05:58:10;8.47;;;6.80;;
10122;SDS011;5101;49.038;8.710;2023-03-08T06:00:35;11.73;;;7.20;;
10122;SDS011;5101;49.038;8.710;2023-03-08T06:03:01;10.47;;;7.10;;
10122;SDS011;5101;49.038;8.710;2023-03-08T06:05:30;9.70;;;7.03;;
10122;SDS011;5101;49.038;8.710;2023-03-08T06:07:56;13.67;;;7.63;;
10122;SDS011;5101;49.038;8.710;2023-03-08T06:10:21;11.87;;;7.50;;
10122;SDS011;5101;49.038;8.710;2023-03-08T06:12:47;26.73;;;17.70;;
10122;SDS011;5101;49.038;8.710;2023-03-08T06:15:13;29.30;;;21.20;;
10122;SDS011;5101;49.038;8.710;2023-03-08T06:17:39;28.67;;;18.40;;
10122;SDS011;5101;49.038;8.710;2023-03-08T06:20:05;14.97;;;9.37;;
10122;SDS011;5101;49.038;8.710;2023-03-08T06:22:31;16.17;;;10.20;;
10122;SDS011;5101;49.038;8.710;2023-03-08T06:24:57;17.67;;;11.27;;
10122;SDS011;5101;49.038;8.710;2023-03-08T06:27:23;18.00;;;12.40;;
10122;SDS011;5101;49.038;8.710;2023-03-08T06:29:48;15.80;;;10.13;;
10122;SDS011;5101;49.038;8.710;2023-03-08T06:32:14;16.10;;;9.90;;
10122;SDS011;5101;49.038;8.710;2023-03-08T06:34:41;14.67;;;9.10;;
10122;SDS011;5101;49.038;8.710;2023-03-08T06:37:06;14.30;;;8.83;;
10122;SDS011;5101;49.038;8.710;2023-03-08T06:39:32;11.00;;;7.67;;
10122;SDS011;5101;49.038;8.710;2023-03-08T06:41:58;13.63;;;7.67;;
10122;SDS011;5101;49.038;8.710;2023-03-08T06:44:28;10.50;;;7.67;;
10122;SDS011;5101;49.038;8.710;2023-03-08T06:46:54;11.23;;;8.10;;
10122;SDS011;5101;49.038;8.710;2023-03-08T06:49:20;10.90;;;7.73;;
10122;SDS011;5101;49.038;8.710;2023-03-08T06:51:46;13.73;;;7.50;;
10122;SDS011;5101;49.038;8.710;2023-03-08T06:54:11;18.13;;;8.77;;
10122;SDS011;5101;49.038;8.710;2023-03-08T06:56:41;10.57;;;7.70;;
10122;SDS011;5101;49.038;8.710;2023-03-08T06:59:11;12.23;;;8.33;;
10122;SDS011;5101;49.038;8.710;2023-03-08T07:01:37;13.37;;;7.53;;
10122;SDS011;5101;49.038;8.710;2023-03-08T07:04:03;21.07;;;10.83;;
10122;SDS011;5101;49.038;8.710;2023-03-08T07:06:28;19.30;;;9.17;;
10122;SDS011;5101;49.038;8.710;2023-03-08T07:08:54;14.53;;;8.20;;
10122;SDS011;5101;49.038;8.710;2023-03-08T07:11:19;14.87;;;8.70;;
10122;SDS011;5101;49.038;8.710;2023-03-08T07:13:45;15.30;;;8.33;;
10122;SDS011;5101;49.038;8.710;2023-03-08T07:16:11;13.10;;;7.83;;
10122;SDS011;5101;49.038;8.710;2023-03-08T07:18:37;13.20;;;7.60;;
10122;SDS011;5101;49.038;8.710;2023-03-08T07:21:03;16.33;;;7.73;;
10122;SDS011;5101;49.038;8.710;2023-03-08T07:23:29;14.63;;;8.13;;
10122;SDS011;5101;49.038;8.710;2023-03-08T07:25:54;10.77;;;7.97;;
10122;SDS011;5101;49.038;8.710;2023-03-08T07:28:20;11.87;;;6.83;;
10122;SDS011;5101;49.038;8.710;2023-03-08T07:30:46;12.60;;;7.43;;
10122;SDS011;5101;49.038;8.710;2023-03-08T07:33:12;11.90;;;7.57;;
10122;SDS011;5101;49.038;8.710;2023-03-08T07:35:38;17.70;;;7.90;;
10122;SDS011;5101;49.038;8.710;2023-03-08T07:38:04;14.07;;;8.20;;
10122;SDS011;5101;49.038;8.710;2023-03-08T07:40:29;10.43;;;7.73;;
10122;SDS011;5101;49.038;8.710;2023-03-08T07:42:55;10.13;;;7.93;;
10122;SDS011;5101;49.038;8.710;2023-03-08T07:45:23;9.30;;;7.13;;
10122;SDS011;5101;49.038;8.710;2023-03-08T07:48:01;10.73;;;7.87;;
10122;SDS011;5101;49.038;8.710;2023-03-08T07:50:27;14.97;;;8.03;;
10122;SDS011;5101;49.038;8.710;2023-03-08T07:52:53;10.63;;;8.00;;
10122;SDS011;5101;49.038;8.710;2023-03-08T07:55:18;13.97;;;9.17;;
10122;SDS011;5101;49.038;8.710;2023-03-08T07:57:45;15.13;;;8.87;;
10122;SDS011;5101;49.038;8.710;2023-03-08T08:00:10;13.30;;;8.37;;
10122;SDS011;5101;49.038;8.710;2023-03-08T08:02:36;11.10;;;7.97;;
10122;SDS011;5101;49.038;8.710;2023-03-08T08:05:02;14.53;;;8.93;;
10122;SDS011;5101;49.038;8.710;2023-03-08T08:07:28;13.67;;;8.27;;
10122;SDS011;5101;49.038;8.710;2023-03-08T08:09:54;13.87;;;8.73;;
10122;SDS011;5101;49.038;8.710;2023-03-08T08:12:20;15.33;;;8.83;;
10122;SDS011;5101;49.038;8.710;2023-03-08T08:14:47;13.90;;;8.83;;
10122;SDS011;5101;49.038;8.710;2023-03-08T08:17:15;12.60;;;8.57;;
10122;SDS011;5101;49.038;8.710;2023-03-08T08:19:43;11.07;;;8.20;;
10122;SDS011;5101;49.038;8.710;2023-03-08T08:22:08;14.90;;;9.07;;
10122;SDS011;5101;49.038;8.710;2023-03-08T08:24:34;15.27;;;8.83;;
10122;SDS011;5101;49.038;8.710;2023-03-08T08:26:59;13.00;;;8.17;;
10122;SDS011;5101;49.038;8.710;2023-03-08T08:29:25;13.13;;;7.50;;
10122;SDS011;5101;49.038;8.710;2023-03-08T08:31:51;12.87;;;7.73;;
10122;SDS011;5101;49.038;8.710;2023-03-08T08:34:17;11.73;;;8.07;;
10122;SDS011;5101;49.038;8.710;2023-03-08T08:36:44;13.53;;;8.63;;
10122;SDS011;5101;49.038;8.710;2023-03-08T08:39:10;12.50;;;8.43;;
10122;SDS011;5101;49.038;8.710;2023-03-08T08:41:35;13.07;;;8.90;;
10122;SDS011;5101;49.038;8.710;2023-03-08T08:44:01;12.17;;;8.80;;
10122;SDS011;5101;49.038;8.710;2023-03-08T08:46:27;15.47;;;9.70;;
10122;SDS011;5101;49.038;8.710;2023-03-08T08:48:54;13.77;;;9.70;;
10122;SDS011;5101;49.038;8.710;2023-03-08T08:51:23;14.00;;;9.70;;
10122;SDS011;5101;49.038;8.710;2023-03-08T08:53:49;13.23;;;9.23;;
10122;SDS011;5101;49.038;8.710;2023-03-08T08:56:19;16.13;;;9.87;;
10122;SDS011;5101;49.038;8.710;2023-03-08T08:58:47;10.40;;;8.23;;
10122;SDS011;5101;49.038;8.710;2023-03-08T09:01:13;13.83;;;9.77;;
10122;SDS011;5101;49.038;8.710;2023-03-08T09:03:41;12.13;;;8.80;;
10122;SDS011;5101;49.038;8.710;2023-03-08T09:06:07;16.23;;;9.37;;
10122;SDS011;5101;49.038;8.710;2023-03-08T09:08:33;14.33;;;10.93;;
10122;SDS011;5101;49.038;8.710;2023-03-08T09:11:06;11.50;;;9.27;;
10122;SDS011;5101;49.038;8.710;2023-03-08T09:13:33;17.77;;;11.27;;
10122;SDS011;5101;49.038;8.710;2023-03-08T09:15:59;11.33;;;9.10;;
10122;SDS011;5101;49.038;8.710;2023-03-08T09:18:25;12.70;;;9.47;;
10122;SDS011;5101;49.038;8.710;2023-03-08T09:20:50;13.60;;;9.43;;
10122;SDS011;5101;49.038;8.710;2023-03-08T09:23:16;17.87;;;13.97;;
10122;SDS011;5101;49.038;8.710;2023-03-08T09:25:41;14.33;;;9.80;;
10122;SDS011;5101;49.038;8.710;2023-03-08T09:28:07;15.03;;;10.30;;
10122;SDS011;5101;49.038;8.710;2023-03-08T09:30:33;16.53;;;9.57;;
10122;SDS011;5101;49.038;8.710;2023-03-08T09:32:59;13.13;;;9.30;;
10122;SDS011;5101;49.038;8.710;2023-03-08T09:35:26;15.90;;;10.40;;
10122;SDS011;5101;49.038;8.710;2023-03-08T09:37:51;13.30;;;9.23;;
10122;SDS011;5101;49.038;8.710;2023-03-08T09:40:20;12.83;;;9.73;;
10122;SDS011;5101;49.038;8.710;2023-03-08T09:42:48;17.67;;;9.20;;
10122;SDS011;5101;49.038;8.710;2023-03-08T09:50:16;13.87;;;9.33;;
10122;SDS011;5101;49.038;8.710;2023-03-08T09:52:51;21.30;;;9.83;;
10122;SDS011;5101;49.038;8.710;2023-03-08T09:55:26;17.70;;;10.07;;
10122;SDS011;5101;49.038;8.710;2023-03-08T09:57:55;17.53;;;9.80;;
10122;SDS011;5101;49.038;8.710;2023-03-08T10:00:36;17.57;;;11.13;;
10122;SDS011;5101;49.038;8.710;2023-03-08T10:05:51;10.93;;;8.57;;
10122;SDS011;5101;49.038;8.710;2023-03-08T10:11:22;10.67;;;7.70;;
10122;SDS011;5101;49.038;8.710;2023-03-08T10:13:55;12.00;;;7.90;;
10122;SDS011;5101;49.038;8.710;2023-03-08T10:16:31;10.63;;;7.60;;
10122;SDS011;5101;49.038;8.710;2023-03-08T10:19:22;9.60;;;7.37;;
10122;SDS011;5101;49.038;8.710;2023-03-08T10:21:58;8.87;;;7.47;;
10122;SDS011;5101;49.038;8.710;2023-03-08T10:24:38;12.27;;;7.30;;
10122;SDS011;5101;49.038;8.710;2023-03-08T10:27:14;9.00;;;7.37;;
10122;SDS011;5101;49.038;8.710;2023-03-08T10:29:48;11.87;;;8.23;;
10122;SDS011;5101;49.038;8.710;2023-03-08T10:32:15;14.27;;;9.07;;
10122;SDS011;5101;49.038;8.710;2023-03-08T10:34:41;14.20;;;8.63;;
10122;SDS011;5101;49.038;8.710;2023-03-08T10:37:06;14.20;;;7.97;;
10122;SDS011;5101;49.038;8.710;2023-03-08T10:39:34;11.20;;;8.17;;
10122;SDS011;5101;49.038;8.710;2023-03-08T10:42:05;11.20;;;7.97;;
10122;SDS011;5101;49.038;8.710;2023-03-08T10:49:46;11.43;;;7.67;;
10122;SDS011;5101;49.038;8.710;2023-03-08T10:52:27;8.60;;;6.90;;
10122;SDS011;5101;49.038;8.710;2023-03-08T10:57:33;9.07;;;6.70;;
10122;SDS011;5101;49.038;8.710;2023-03-08T11:00:01;8.00;;;6.70;;
10122;SDS011;5101;49.038;8.710;2023-03-08T11:02:36;8.70;;;6.63;;
10122;SDS011;5101;49.038;8.710;2023-03-08T11:05:02;8.73;;;6.83;;
10122;SDS011;5101;49.038;8.710;2023-03-08T11:07:40;7.67;;;6.47;;
10122;SDS011;5101;49.038;8.710;2023-03-08T11:10:16;8.27;;;6.53;;
10122;SDS011;5101;49.038;8.710;2023-03-08T11:12:44;7.70;;;6.50;;
10122;SDS011;5101;49.038;8.710;2023-03-08T11:15:13;10.93;;;6.60;;
10122;SDS011;5101;49.038;8.710;2023-03-08T11:17:44;9.70;;;6.47;;
10122;SDS011;5101;49.038;8.710;2023-03-08T11:20:22;8.90;;;6.63;;
10122;SDS011;5101;49.038;8.710;2023-03-08T11:23:14;7.38;;;6.30;;
10122;SDS011;5101;49.038;8.710;2023-03-08T11:25:46;6.90;;;5.77;;
10122;SDS011;5101;49.038;8.710;2023-03-08T11:28:55;9.02;;;6.25;;
10122;SDS011;5101;49.038;8.710;2023-03-08T11:31:52;9.10;;;7.20;;
10122;SDS011;5101;49.038;8.710;2023-03-08T11:34:31;9.20;;;6.97;;
10122;SDS011;5101;49.038;8.710;2023-03-08T11:37:07;8.20;;;6.75;;
10122;SDS011;5101;49.038;8.710;2023-03-08T11:39:45;9.50;;;7.65;;
10122;SDS011;5101;49.038;8.710;2023-03-08T11:42:21;10.07;;;8.43;;
10122;SDS011;5101;49.038;8.710;2023-03-08T11:47:50;5.88;;;5.13;;
10122;SDS011;5101;49.038;8.710;2023-03-08T11:50:48;3.65;;;3.25;;
10122;SDS011;5101;49.038;8.710;2023-03-08T11:53:27;3.38;;;3.08;;
10122;SDS011;5101;49.038;8.710;2023-03-08T11:59:02;2.13;;;1.80;;
10122;SDS011;5101;49.038;8.710;2023-03-08T12:01:51;1.95;;;1.80;;
10122;SDS011;5101;49.038;8.710;2023-03-08T12:04:25;0.90;;;0.90;;
10122;SDS011;5101;49.038;8.710;2023-03-08T12:07:15;0.90;;;0.80;;
10122;SDS011;5101;49.038;8.710;2023-03-08T12:10:03;1.10;;;0.65;;
10122;SDS011;5101;49.038;8.710;2023-03-08T12:12:40;5.22;;;0.73;;
10122;SDS011;5101;49.038;8.710;2023-03-08T12:15:24;0.95;;;0.93;;
10122;SDS011;5101;49.038;8.710;2023-03-08T12:18:04;0.82;;;0.60;;
10122;SDS011;5101;49.038;8.710;2023-03-08T12:20:40;1.65;;;0.70;;
10122;SDS011;5101;49.038;8.710;2023-03-08T12:23:23;0.40;;;0.30;;
10122;SDS011;5101;49.038;8.710;2023-03-08T12:26:08;0.68;;;0.47;;
10122;SDS011;5101;49.038;8.710;2023-03-08T12:28:42;1.73;;;0.50;;
10122;SDS011;5101;49.038;8.710;2023-03-08T12:31:26;1.73;;;0.52;;
10122;SDS011;5101;49.038;8.710;2023-03-08T12:33:55;1.42;;;0.50;;
10122;SDS011;5101;49.038;8.710;2023-03-08T12:36:22;0.47;;;0.47;;
10122;SDS011;5101;49.038;8.710;2023-03-08T12:39:07;0.45;;;0.32;;
10122;SDS011;5101;49.038;8.710;2023-03-08T12:41:55;1.13;;;0.70;;
10122;SDS011;5101;49.038;8.710;2023-03-08T12:44:33;0.98;;;0.60;;
10122;SDS011;5101;49.038;8.710;2023-03-08T12:47:17;1.10;;;0.85;;
10122;SDS011;5101;49.038;8.710;2023-03-08T12:49:46;0.40;;;0.40;;
10122;SDS011;5101;49.038;8.710;2023-03-08T12:57:35;3.30;;;0.93;;
10122;SDS011;5101;49.038;8.710;2023-03-08T13:00:24;0.50;;;0.40;;
10122;SDS011;5101;49.038;8.710;2023-03-08T13:05:39;0.30;;;0.30;;
10122;SDS011;5101;49.038;8.710;2023-03-08T13:10:52;1.23;;;0.50;;
10122;SDS011;5101;49.038;8.710;2023-03-08T13:13:25;2.88;;;0.57;;
10122;SDS011;5101;49.038;8.710;2023-03-08T13:18:40;0.80;;;0.30;;
10122;SDS011;5101;49.038;8.710;2023-03-08T13:23:57;0.77;;;0.40;;
10122;SDS011;5101;49.038;8.710;2023-03-08T13:29:07;0.40;;;0.40;;
10122;SDS011;5101;49.038;8.710;2023-03-08T13:31:40;0.30;;;0.20;;
10122;SDS011;5101;49.038;8.710;2023-03-08T13:34:21;0.30;;;0.30;;
10122;SDS011;5101;49.038;8.710;2023-03-08T13:36:49;1.17;;;0.40;;
10122;SDS011;5101;49.038;8.710;2023-03-08T13:39:19;0.68;;;0.38;;
10122;SDS011;5101;49.038;8.710;2023-03-08T13:41:52;0.30;;;0.10;;
10122;SDS011;5101;49.038;8.710;2023-03-08T13:44:29;0.25;;;0.20;;
10122;SDS011;5101;49.038;8.710;2023-03-08T13:46:56;0.22;;;0.20;;
10122;SDS011;5101;49.038;8.710;2023-03-08T13:49:26;0.30;;;0.30;;
10122;SDS011;5101;49.038;8.710;2023-03-08T13:51:59;0.70;;;0.30;;
10122;SDS011;5101;49.038;8.710;2023-03-08T13:54:40;3.33;;;0.70;;
10122;SDS011;5101;49.038;8.710;2023-03-08T13:57:16;5.35;;;0.30;;
10122;SDS011;5101;49.038;8.710;2023-03-08T13:59:49;1.90;;;0.50;;
10122;SDS011;5101;49.038;8.710;2023-03-08T14:02:18;0.85;;;0.30;;
10122;SDS011;5101;49.038;8.710;2023-03-08T14:04:45;0.30;;;0.30;;
10122;SDS011;5101;49.038;8.710;2023-03-08T14:07:16;0.20;;;0.20;;
10122;SDS011;5101;49.038;8.710;2023-03-08T14:09:45;1.85;;;0.43;;
10122;SDS011;5101;49.038;8.710;2023-03-08T14:12:11;0.40;;;0.20;;
10122;SDS011;5101;49.038;8.710;2023-03-08T14:14:39;0.43;;;0.20;;
10122;SDS011;5101;49.038;8.710;2023-03-08T14:17:41;0.65;;;0.50;;
10122;SDS011;5101;49.038;8.710;2023-03-08T14:20:04;0.30;;;0.30;;
10122;SDS011;5101;49.038;8.710;2023-03-08T14:22:46;2.38;;;0.30;;
10122;SDS011;5101;49.038;8.710;2023-03-08T14:25:20;2.20;;;0.50;;
10122;SDS011;5101;49.038;8.710;2023-03-08T14:27:46;1.10;;;0.85;;
10122;SDS011;5101;49.038;8.710;2023-03-08T14:30:16;0.77;;;0.40;;
10122;SDS011;5101;49.038;8.710;2023-03-08T14:35:32;0.98;;;0.57;;
10122;SDS011;5101;49.038;8.710;2023-03-08T14:38:00;0.68;;;0.50;;
10122;SDS011;5101;49.038;8.710;2023-03-08T14:40:33;0.70;;;0.30;;
10122;SDS011;5101;49.038;8.710;2023-03-08T14:43:05;0.47;;;0.30;;
10122;SDS011;5101;49.038;8.710;2023-03-08T14:45:41;0.80;;;0.30;;
10122;SDS011;5101;49.038;8.710;2023-03-08T14:48:29;1.42;;;0.38;;
10122;SDS011;5101;49.038;8.710;2023-03-08T14:53:41;1.35;;;0.50;;
10122;SDS011;5101;49.038;8.710;2023-03-08T14:56:11;1.38;;;0.52;;
10122;SDS011;5101;49.038;8.710;2023-03-08T14:58:38;2.80;;;0.50;;
10122;SDS011;5101;49.038;8.710;2023-03-08T15:01:05;4.55;;;0.60;;
10122;SDS011;5101;49.038;8.710;2023-03-08T15:03:31;2.42;;;0.50;;
10122;SDS011;5101;49.038;8.710;2023-03-08T15:05:57;0.50;;;0.50;;
10122;SDS011;5101;49.038;8.710;2023-03-08T15:08:25;0.63;;;0.50;;
10122;SDS011;5101;49.038;8.710;2023-03-08T15:10:51;0.50;;;0.40;;
10122;SDS011;5101;49.038;8.710;2023-03-08T15:13:18;2.38;;;0.50;;
10122;SDS011;5101;49.038;8.710;2023-03-08T15:15:45;1.02;;;0.40;;
10122;SDS011;5101;49.038;8.710;2023-03-08T15:18:11;0.57;;;0.30;;
10122;SDS011;5101;49.038;8.710;2023-03-08T15:20:37;2.22;;;0.50;;
10122;SDS011;5101;49.038;8.710;2023-03-08T15:23:10;0.95;;;0.35;;
10122;SDS011;5101;49.038;8.710;2023-03-08T15:25:53;2.53;;;0.60;;
10122;SDS011;5101;49.038;8.710;2023-03-08T15:28:20;0.40;;;0.40;;
10122;SDS011;5101;49.038;8.710;2023-03-08T15:30:47;1.45;;;0.50;;
10122;SDS011;5101;49.038;8.710;2023-03-08T15:33:16;0.95;;;0.40;;
10122;SDS011;5101;49.038;8.710;2023-03-08T15:35:42;1.02;;;0.35;;
10122;SDS011;5101;49.038;8.710;2023-03-08T15:38:10;0.40;;;0.40;;
10122;SDS011;5101;49.038;8.710;2023-03-08T15:40:37;1.17;;;0.30;;
10122;SDS011;5101;49.038;8.710;2023-03-08T15:43:03;0.40;;;0.40;;
10122;SDS011;5101;49.038;8.710;2023-03-08T15:45:28;0.90;;;0.38;;
10122;SDS011;5101;49.038;8.710;2023-03-08T15:48:04;0.93;;;0.43;;
10122;SDS011;5101;49.038;8.710;2023-03-08T15:50:31;0.30;;;0.30;;
10122;SDS011;5101;49.038;8.710;2023-03-08T15:52:58;0.43;;;0.43;;
10122;SDS011;5101;49.038;8.710;2023-03-08T15:55:25;0.90;;;0.40;;
10122;SDS011;5101;49.038;8.710;2023-03-08T15:57:52;0.68;;;0.68;;